sensor_id;sensor_type;location;lat;lon;timestamp;pressure;altitude;pressure_sealevel;temperature;humidity
73600;BME280;61877;48.246;9.220;2023-05-12T00:00:54;93801.09;;;7.95;97.09
73600;BME280;61877;48.246;9.220;2023-05-12T00:03:23;93805.19;;;7.92;97.06
73600;BME280;61877;48.246;9.220;2023-05-12T00:05:52;93807.41;;;7.90;97.12
73600;BME280;61877;48.246;9.220;2023-05-12T00:08:21;93804.75;;;7.90;97.67
73600;BME280;61877;48.246;9.220;2023-05-12T00:10:56;93802.06;;;7.90;97.64
73600;BME280;61877;48.246;9.220;2023-05-12T00:13:27;93805.41;;;7.87;97.35
73600;BME280;61877;48.246;9.220;2023-05-12T00:15:53;93799.94;;;7.83;97.60
73600;BME280;61877;48.246;9.220;2023-05-12T00:18:19;93797.78;;;7.77;97.19
73600;BME280;61877;48.246;9.220;2023-05-12T00:20:45;93794.91;;;7.82;96.05
73600;BME280;61877;48.246;9.220;2023-05-12T00:23:17;93801.34;;;7.81;96.17
73600;BME280;61877;48.246;9.220;2023-05-12T00:25:49;93794.00;;;7.78;95.58
73600;BME280;61877;48.246;9.220;2023-05-12T00:28:15;93786.84;;;7.70;96.30
73600;BME280;61877;48.246;9.220;2023-05-12T00:30:57;93785.94;;;7.66;97.09
73600;BME280;61877;48.246;9.220;2023-05-12T00:33:35;93791.91;;;7.63;97.00
73600;BME280;61877;48.246;9.220;2023-05-12T00:36:12;93794.91;;;7.61;97.30
73600;BME280;61877;48.246;9.220;2023-05-12T00:38:42;93794.16;;;7.61;96.96
73600;BME280;61877;48.246;9.220;2023-05-12T00:41:07;93783.66;;;7.56;97.23
73600;BME280;61877;48.246;9.220;2023-05-12T00:43:38;93788.22;;;7.55;97.08
73600;BME280;61877;48.246;9.220;2023-05-12T00:46:08;93790.34;;;7.62;96.91
73600;BME280;61877;48.246;9.220;2023-05-12T00:48:34;93793.63;;;7.67;96.10
73600;BME280;61877;48.246;9.220;2023-05-12T00:51:03;93791.28;;;7.66;96.42
73600;BME280;61877;48.246;9.220;2023-05-12T00:53:46;93792.84;;;7.67;97.07
73600;BME280;61877;48.246;9.220;2023-05-12T00:56:18;93784.50;;;7.68;96.74
73600;BME280;61877;48.246;9.220;2023-05-12T00:58:54;93785.75;;;7.71;97.08
73600;BME280;61877;48.246;9.220;2023-05-12T01:01:33;93787.75;;;7.74;96.86
73600;BME280;61877;48.246;9.220;2023-05-12T01:04:01;93784.44;;;7.77;96.73
73600;BME280;61877;48.246;9.220;2023-05-12T01:06:35;93789.44;;;7.78;96.83
73600;BME280;61877;48.246;9.220;2023-05-12T01:09:03;93781.97;;;7.72;96.47
73600;BME280;61877;48.246;9.220;2023-05-12T01:11:29;93787.09;;;7.77;96.86
73600;BME280;61877;48.246;9.220;2023-05-12T01:13:58;93777.31;;;7.81;97.40
73600;BME280;61877;48.246;9.220;2023-05-12T01:16:40;93788.00;;;7.81;96.36
73600;BME280;61877;48.246;9.220;2023-05-12T01:19:22;93782.16;;;7.88;95.42
73600;BME280;61877;48.246;9.220;2023-05-12T01:24:51;93776.59;;;7.93;94.75
73600;BME280;61877;48.246;9.220;2023-05-12T01:27:40;93777.44;;;7.84;95.59
73600;BME280;61877;48.246;9.220;2023-05-12T01:30:17;93779.50;;;7.88;96.10
73600;BME280;61877;48.246;9.220;2023-05-12T01:32:44;93774.16;;;7.88;95.59
73600;BME280;61877;48.246;9.220;2023-05-12T01:35:16;93779.91;;;7.89;96.20
73600;BME280;61877;48.246;9.220;2023-05-12T01:37:42;93782.91;;;7.88;96.15
73600;BME280;61877;48.246;9.220;2023-05-12T01:40:09;93779.03;;;7.85;95.93
73600;BME280;61877;48.246;9.220;2023-05-12T01:42:38;93773.16;;;7.92;95.12
73600;BME280;61877;48.246;9.220;2023-05-12T01:45:05;93766.91;;;7.88;94.97
73600;BME280;61877;48.246;9.220;2023-05-12T01:47:33;93775.91;;;7.83;95.68
73600;BME280;61877;48.246;9.220;2023-05-12T01:49:59;93779.03;;;7.85;96.51
73600;BME280;61877;48.246;9.220;2023-05-12T01:52:25;93768.00;;;7.87;96.82
73600;BME280;61877;48.246;9.220;2023-05-12T01:54:56;93772.25;;;7.88;97.46
73600;BME280;61877;48.246;9.220;2023-05-12T01:57:25;93774.25;;;7.91;98.11
73600;BME280;61877;48.246;9.220;2023-05-12T01:59:57;93777.38;;;7.93;98.15
73600;BME280;61877;48.246;9.220;2023-05-12T02:02:23;93770.16;;;7.94;97.90
73600;BME280;61877;48.246;9.220;2023-05-12T02:04:57;93770.94;;;7.94;98.33
73600;BME280;61877;48.246;9.220;2023-05-12T02:07:34;93771.03;;;7.98;98.27
73600;BME280;61877;48.246;9.220;2023-05-12T02:10:17;93775.28;;;7.99;98.37
73600;BME280;61877;48.246;9.220;2023-05-12T02:12:43;93779.66;;;8.03;98.49
73600;BME280;61877;48.246;9.220;2023-05-12T02:17:55;93775.34;;;8.11;98.07
73600;BME280;61877;48.246;9.220;2023-05-12T02:20:24;93780.56;;;8.07;97.57
73600;BME280;61877;48.246;9.220;2023-05-12T02:22:49;93784.19;;;8.03;97.40
73600;BME280;61877;48.246;9.220;2023-05-12T02:25:22;93776.66;;;8.05;98.45
73600;BME280;61877;48.246;9.220;2023-05-12T02:27:56;93774.31;;;8.03;97.94
73600;BME280;61877;48.246;9.220;2023-05-12T02:30:26;93776.78;;;8.08;97.67
73600;BME280;61877;48.246;9.220;2023-05-12T02:32:54;93772.88;;;8.06;97.86
73600;BME280;61877;48.246;9.220;2023-05-12T02:38:06;93774.44;;;8.07;98.28
73600;BME280;61877;48.246;9.220;2023-05-12T02:40:32;93776.31;;;8.06;98.26
73600;BME280;61877;48.246;9.220;2023-05-12T02:43:06;93785.13;;;8.07;98.33
73600;BME280;61877;48.246;9.220;2023-05-12T02:45:35;93782.66;;;8.02;97.96
73600;BME280;61877;48.246;9.220;2023-05-12T02:48:01;93782.78;;;8.05;98.32
73600;BME280;61877;48.246;9.220;2023-05-12T02:50:27;93782.78;;;8.05;97.57
73600;BME280;61877;48.246;9.220;2023-05-12T02:52:55;93783.66;;;8.09;98.06
73600;BME280;61877;48.246;9.220;2023-05-12T02:55:21;93786.34;;;8.09;98.10
73600;BME280;61877;48.246;9.220;2023-05-12T02:57:47;93782.56;;;8.10;97.93
73600;BME280;61877;48.246;9.220;2023-05-12T03:00:16;93783.66;;;8.09;98.61
73600;BME280;61877;48.246;9.220;2023-05-12T03:02:43;93777.44;;;8.05;97.87
73600;BME280;61877;48.246;9.220;2023-05-12T03:05:09;93775.75;;;8.01;97.56
73600;BME280;61877;48.246;9.220;2023-05-12T03:07:51;93777.09;;;8.07;97.75
73600;BME280;61877;48.246;9.220;2023-05-12T03:10:17;93781.78;;;8.10;98.20
73600;BME280;61877;48.246;9.220;2023-05-12T03:12:43;93775.34;;;8.11;97.73
73600;BME280;61877;48.246;9.220;2023-05-12T03:15:10;93785.25;;;8.10;97.69
73600;BME280;61877;48.246;9.220;2023-05-12T03:17:35;93773.78;;;8.10;97.49
73600;BME280;61877;48.246;9.220;2023-05-12T03:20:07;93775.44;;;8.14;97.85
73600;BME280;61877;48.246;9.220;2023-05-12T03:22:36;93775.66;;;8.09;97.30
73600;BME280;61877;48.246;9.220;2023-05-12T03:25:07;93778.78;;;8.11;97.18
73600;BME280;61877;48.246;9.220;2023-05-12T03:27:36;93780.56;;;8.07;96.80
73600;BME280;61877;48.246;9.220;2023-05-12T03:30:02;93775.66;;;8.09;95.51
73600;BME280;61877;48.246;9.220;2023-05-12T03:32:34;93766.53;;;8.10;94.31
73600;BME280;61877;48.246;9.220;2023-05-12T03:35:00;93768.16;;;8.03;94.90
73600;BME280;61877;48.246;9.220;2023-05-12T03:37:34;93773.91;;;7.93;95.97
73600;BME280;61877;48.246;9.220;2023-05-12T03:39:59;93761.69;;;7.92;96.24
73600;BME280;61877;48.246;9.220;2023-05-12T03:42:45;93764.81;;;7.94;95.86
73600;BME280;61877;48.246;9.220;2023-05-12T03:45:13;93763.38;;;7.96;96.63
73600;BME280;61877;48.246;9.220;2023-05-12T03:48:02;93762.28;;;7.97;96.05
73600;BME280;61877;48.246;9.220;2023-05-12T03:50:36;93767.63;;;7.97;96.22
73600;BME280;61877;48.246;9.220;2023-05-12T03:53:18;93767.47;;;7.94;95.86
73600;BME280;61877;48.246;9.220;2023-05-12T03:55:46;93761.81;;;7.95;95.81
73600;BME280;61877;48.246;9.220;2023-05-12T03:58:30;93770.41;;;8.01;95.88
73600;BME280;61877;48.246;9.220;2023-05-12T04:01:02;93767.63;;;7.97;95.83
73600;BME280;61877;48.246;9.220;2023-05-12T04:06:22;93765.59;;;7.94;96.13
73600;BME280;61877;48.246;9.220;2023-05-12T04:11:34;93767.94;;;7.96;96.70
73600;BME280;61877;48.246;9.220;2023-05-12T04:14:03;93758.69;;;7.93;96.81
73600;BME280;61877;48.246;9.220;2023-05-12T04:16:53;93773.09;;;8.01;96.94
73600;BME280;61877;48.246;9.220;2023-05-12T04:19:21;93763.16;;;8.01;97.15
73600;BME280;61877;48.246;9.220;2023-05-12T04:22:02;93768.16;;;8.03;97.30
73600;BME280;61877;48.246;9.220;2023-05-12T04:24:39;93773.22;;;8.04;96.91
73600;BME280;61877;48.246;9.220;2023-05-12T04:27:08;93771.44;;;8.08;97.95
73600;BME280;61877;48.246;9.220;2023-05-12T04:29:33;93779.38;;;8.17;97.86
73600;BME280;61877;48.246;9.220;2023-05-12T04:31:59;93767.22;;;8.19;97.06
73600;BME280;61877;48.246;9.220;2023-05-12T04:37:30;93781.13;;;8.13;96.93
73600;BME280;61877;48.246;9.220;2023-05-12T04:40:20;93784.19;;;8.23;97.53
73600;BME280;61877;48.246;9.220;2023-05-12T04:42:48;93789.53;;;8.23;97.10
73600;BME280;61877;48.246;9.220;2023-05-12T04:45:14;93785.28;;;8.22;96.68
73600;BME280;61877;48.246;9.220;2023-05-12T04:47:42;93784.44;;;8.30;97.31
73600;BME280;61877;48.246;9.220;2023-05-12T04:50:11;93789.38;;;8.40;96.12
73600;BME280;61877;48.246;9.220;2023-05-12T04:55:57;93785.91;;;8.40;96.25
73600;BME280;61877;48.246;9.220;2023-05-12T04:58:47;93794.72;;;8.40;95.19
73600;BME280;61877;48.246;9.220;2023-05-12T05:01:16;93788.28;;;8.53;95.58
73600;BME280;61877;48.246;9.220;2023-05-12T05:03:52;93794.84;;;8.44;94.90
73600;BME280;61877;48.246;9.220;2023-05-12T05:06:21;93793.66;;;8.53;94.82
73600;BME280;61877;48.246;9.220;2023-05-12T05:08:57;93791.00;;;8.65;95.12
73600;BME280;61877;48.246;9.220;2023-05-12T05:11:42;93792.13;;;8.76;93.61
73600;BME280;61877;48.246;9.220;2023-05-12T05:14:24;93792.13;;;8.76;93.05
73600;BME280;61877;48.246;9.220;2023-05-12T05:17:01;93791.69;;;8.86;92.46
73600;BME280;61877;48.246;9.220;2023-05-12T05:19:43;93793.34;;;8.91;92.59
73600;BME280;61877;48.246;9.220;2023-05-12T05:22:26;93793.81;;;9.05;92.11
73600;BME280;61877;48.246;9.220;2023-05-12T05:25:18;93788.78;;;9.15;91.75
73600;BME280;61877;48.246;9.220;2023-05-12T05:31:19;93793.91;;;9.21;91.02
73600;BME280;61877;48.246;9.220;2023-05-12T05:43:25;93794.78;;;9.49;89.55
73600;BME280;61877;48.246;9.220;2023-05-12T05:52:00;93811.50;;;9.70;88.77
73600;BME280;61877;48.246;9.220;2023-05-12T05:54:46;93805.69;;;9.80;88.84
73600;BME280;61877;48.246;9.220;2023-05-12T05:57:31;93806.06;;;10.06;88.01
73600;BME280;61877;48.246;9.220;2023-05-12T06:00:06;93806.56;;;10.23;87.53
73600;BME280;61877;48.246;9.220;2023-05-12T06:02:41;93802.75;;;10.52;86.53
73600;BME280;61877;48.246;9.220;2023-05-12T06:05:18;93802.06;;;10.55;86.06
73600;BME280;61877;48.246;9.220;2023-05-12T06:07:46;93805.38;;;10.64;84.85
73600;BME280;61877;48.246;9.220;2023-05-12T06:10:11;93810.56;;;10.57;85.17
73600;BME280;61877;48.246;9.220;2023-05-12T06:12:37;93809.25;;;10.67;84.04
73600;BME280;61877;48.246;9.220;2023-05-12T06:15:05;93812.03;;;10.70;83.97
73600;BME280;61877;48.246;9.220;2023-05-12T06:17:30;93811.72;;;10.87;83.61
73600;BME280;61877;48.246;9.220;2023-05-12T06:19:56;93812.88;;;11.17;83.17
73600;BME280;61877;48.246;9.220;2023-05-12T06:22:26;93813.25;;;11.66;81.56
73600;BME280;61877;48.246;9.220;2023-05-12T06:24:52;93819.97;;;11.76;77.98
73600;BME280;61877;48.246;9.220;2023-05-12T06:27:17;93818.22;;;11.99;76.42
73600;BME280;61877;48.246;9.220;2023-05-12T06:29:42;93813.94;;;11.98;78.68
73600;BME280;61877;48.246;9.220;2023-05-12T06:32:09;93815.66;;;11.87;77.48
73600;BME280;61877;48.246;9.220;2023-05-12T06:34:34;93813.66;;;11.84;76.58
73600;BME280;61877;48.246;9.220;2023-05-12T06:37:00;93823.31;;;12.04;76.69
73600;BME280;61877;48.246;9.220;2023-05-12T06:39:27;93818.50;;;11.94;77.59
73600;BME280;61877;48.246;9.220;2023-05-12T06:41:52;93813.94;;;11.98;75.83
73600;BME280;61877;48.246;9.220;2023-05-12T06:44:20;93819.25;;;11.94;76.22
73600;BME280;61877;48.246;9.220;2023-05-12T06:46:45;93807.19;;;12.04;75.61
73600;BME280;61877;48.246;9.220;2023-05-12T06:49:11;93819.47;;;12.05;76.14
73600;BME280;61877;48.246;9.220;2023-05-12T06:51:37;93806.69;;;12.17;75.65
73600;BME280;61877;48.246;9.220;2023-05-12T06:54:04;93817.06;;;12.57;76.91
73600;BME280;61877;48.246;9.220;2023-05-12T06:56:31;93808.94;;;12.34;75.02
73600;BME280;61877;48.246;9.220;2023-05-12T06:58:57;93812.06;;;11.98;76.45
73600;BME280;61877;48.246;9.220;2023-05-12T07:01:22;93812.28;;;12.28;75.56
73600;BME280;61877;48.246;9.220;2023-05-12T07:03:50;93817.78;;;11.97;77.82
73600;BME280;61877;48.246;9.220;2023-05-12T07:06:18;93819.06;;;12.41;75.22
73600;BME280;61877;48.246;9.220;2023-05-12T07:08:44;93816.97;;;12.50;75.26
73600;BME280;61877;48.246;9.220;2023-05-12T07:11:10;93813.84;;;12.48;74.57
73600;BME280;61877;48.246;9.220;2023-05-12T07:13:52;93809.34;;;12.74;73.04
73600;BME280;61877;48.246;9.220;2023-05-12T07:16:18;93807.75;;;12.32;75.57
73600;BME280;61877;48.246;9.220;2023-05-12T07:18:44;93816.25;;;12.53;76.08
73600;BME280;61877;48.246;9.220;2023-05-12T07:21:11;93812.88;;;12.78;73.88
73600;BME280;61877;48.246;9.220;2023-05-12T07:23:36;93809.88;;;12.83;72.68
73600;BME280;61877;48.246;9.220;2023-05-12T07:26:06;93800.97;;;13.21;71.92
73600;BME280;61877;48.246;9.220;2023-05-12T07:28:34;93808.84;;;13.33;72.60
73600;BME280;61877;48.246;9.220;2023-05-12T07:31:01;93798.16;;;13.63;70.65
73600;BME280;61877;48.246;9.220;2023-05-12T07:33:27;93799.84;;;13.48;70.65
73600;BME280;61877;48.246;9.220;2023-05-12T07:35:52;93804.06;;;13.46;70.31
73600;BME280;61877;48.246;9.220;2023-05-12T07:38:18;93805.22;;;13.48;71.01
73600;BME280;61877;48.246;9.220;2023-05-12T07:40:49;93803.50;;;13.59;70.95
73600;BME280;61877;48.246;9.220;2023-05-12T07:43:37;93815.31;;;13.29;69.97
73600;BME280;61877;48.246;9.220;2023-05-12T07:46:04;93807.31;;;13.10;72.13
73600;BME280;61877;48.246;9.220;2023-05-12T07:48:37;93801.78;;;13.25;72.72
73600;BME280;61877;48.246;9.220;2023-05-12T07:57:45;93808.81;;;13.30;69.66
73600;BME280;61877;48.246;9.220;2023-05-12T08:00:38;93797.59;;;13.05;70.93
73600;BME280;61877;48.246;9.220;2023-05-12T08:11:24;93808.28;;;13.47;69.02
73600;BME280;61877;48.246;9.220;2023-05-12T08:16:25;93802.66;;;13.81;67.91
73600;BME280;61877;48.246;9.220;2023-05-12T08:21:10;93798.63;;;14.54;63.71
73600;BME280;61877;48.246;9.220;2023-05-12T08:24:02;93798.06;;;14.41;66.01
73600;BME280;61877;48.246;9.220;2023-05-12T08:26:48;93799.91;;;14.67;65.77
73600;BME280;61877;48.246;9.220;2023-05-12T08:29:17;93800.72;;;14.67;64.85
73600;BME280;61877;48.246;9.220;2023-05-12T08:34:59;93806.69;;;14.87;65.17
73600;BME280;61877;48.246;9.220;2023-05-12T09:17:19;93816.69;;;14.20;73.11
73600;BME280;61877;48.246;9.220;2023-05-12T09:19:47;93820.56;;;14.22;69.18
73600;BME280;61877;48.246;9.220;2023-05-12T09:22:17;93821.69;;;14.21;71.50
73600;BME280;61877;48.246;9.220;2023-05-12T09:24:42;93821.16;;;14.09;73.65
73600;BME280;61877;48.246;9.220;2023-05-12T09:27:13;93825.19;;;14.22;74.83
73600;BME280;61877;48.246;9.220;2023-05-12T09:29:50;93821.22;;;14.12;76.48
73600;BME280;61877;48.246;9.220;2023-05-12T09:51:08;93822.31;;;15.44;72.48
73600;BME280;61877;48.246;9.220;2023-05-12T09:53:40;93823.22;;;15.62;67.18
73600;BME280;61877;48.246;9.220;2023-05-12T09:56:11;93825.66;;;16.35;61.99
73600;BME280;61877;48.246;9.220;2023-05-12T09:58:48;93827.94;;;16.33;62.02
73600;BME280;61877;48.246;9.220;2023-05-12T10:01:16;93825.38;;;16.51;61.81
73600;BME280;61877;48.246;9.220;2023-05-12T10:03:58;93823.06;;;16.53;60.64
73600;BME280;61877;48.246;9.220;2023-05-12T10:06:26;93816.91;;;15.91;62.67
73600;BME280;61877;48.246;9.220;2023-05-12T10:08:59;93822.72;;;15.97;62.57
73600;BME280;61877;48.246;9.220;2023-05-12T10:11:28;93819.50;;;15.81;61.79
73600;BME280;61877;48.246;9.220;2023-05-12T10:13:59;93815.28;;;15.83;62.17
73600;BME280;61877;48.246;9.220;2023-05-12T10:16:28;93813.75;;;15.38;61.20
73600;BME280;61877;48.246;9.220;2023-05-12T10:18:55;93814.44;;;14.88;63.35
73600;BME280;61877;48.246;9.220;2023-05-12T10:21:20;93812.91;;;14.58;64.67
73600;BME280;61877;48.246;9.220;2023-05-12T10:23:51;93807.13;;;14.56;69.14
73600;BME280;61877;48.246;9.220;2023-05-12T10:26:18;93814.59;;;14.66;70.34
73600;BME280;61877;48.246;9.220;2023-05-12T10:28:45;93814.16;;;14.64;71.00
73600;BME280;61877;48.246;9.220;2023-05-12T10:31:13;93817.88;;;14.52;71.06
73600;BME280;61877;48.246;9.220;2023-05-12T10:33:41;93812.72;;;14.73;72.60
73600;BME280;61877;48.246;9.220;2023-05-12T10:36:15;93809.69;;;14.45;73.13
73600;BME280;61877;48.246;9.220;2023-05-12T10:38:46;93817.47;;;14.50;73.56
73600;BME280;61877;48.246;9.220;2023-05-12T10:41:13;93815.22;;;14.56;77.50
73600;BME280;61877;48.246;9.220;2023-05-12T10:43:43;93818.13;;;14.40;75.33
73600;BME280;61877;48.246;9.220;2023-05-12T10:46:23;93811.41;;;14.60;72.25
73600;BME280;61877;48.246;9.220;2023-05-12T10:48:53;93818.41;;;14.65;73.11
73600;BME280;61877;48.246;9.220;2023-05-12T10:51:22;93820.69;;;14.63;70.88
73600;BME280;61877;48.246;9.220;2023-05-12T10:53:52;93816.72;;;15.26;74.43
73600;BME280;61877;48.246;9.220;2023-05-12T10:56:28;93818.75;;;15.36;72.50
73600;BME280;61877;48.246;9.220;2023-05-12T10:59:13;93814.09;;;15.33;72.55
73600;BME280;61877;48.246;9.220;2023-05-12T11:01:55;93818.09;;;15.46;72.36
73600;BME280;61877;48.246;9.220;2023-05-12T11:04:21;93825.47;;;15.13;71.28
73600;BME280;61877;48.246;9.220;2023-05-12T11:07:06;93822.94;;;14.90;68.51
73600;BME280;61877;48.246;9.220;2023-05-12T11:09:38;93819.09;;;14.58;72.39
73600;BME280;61877;48.246;9.220;2023-05-12T11:12:09;93820.44;;;14.42;72.50
73600;BME280;61877;48.246;9.220;2023-05-12T11:14:45;93821.84;;;14.29;77.77
73600;BME280;61877;48.246;9.220;2023-05-12T11:17:14;93828.31;;;14.54;77.17
73600;BME280;61877;48.246;9.220;2023-05-12T11:19:48;93826.06;;;14.59;75.05
73600;BME280;61877;48.246;9.220;2023-05-12T11:22:28;93834.13;;;14.89;72.83
73600;BME280;61877;48.246;9.220;2023-05-12T11:25:07;93822.59;;;15.32;69.86
73600;BME280;61877;48.246;9.220;2023-05-12T11:27:50;93824.88;;;15.30;68.16
73600;BME280;61877;48.246;9.220;2023-05-12T11:30:18;93831.63;;;16.01;69.14
73600;BME280;61877;48.246;9.220;2023-05-12T11:33:11;93834.72;;;15.99;66.31
73600;BME280;61877;48.246;9.220;2023-05-12T11:35:36;93832.28;;;16.41;66.54
73600;BME280;61877;48.246;9.220;2023-05-12T11:38:26;93828.19;;;16.07;63.85
73600;BME280;61877;48.246;9.220;2023-05-12T11:40:54;93828.72;;;16.30;64.77
73600;BME280;61877;48.246;9.220;2023-05-12T11:43:48;93823.81;;;16.46;63.37
73600;BME280;61877;48.246;9.220;2023-05-12T11:46:26;93828.41;;;16.42;62.31
73600;BME280;61877;48.246;9.220;2023-05-12T11:49:12;93821.63;;;16.84;58.13
73600;BME280;61877;48.246;9.220;2023-05-12T11:51:41;93825.50;;;16.83;58.54
73600;BME280;61877;48.246;9.220;2023-05-12T11:54:07;93827.72;;;16.56;62.54
73600;BME280;61877;48.246;9.220;2023-05-12T11:56:34;93828.34;;;15.74;64.95
73600;BME280;61877;48.246;9.220;2023-05-12T11:59:07;93826.63;;;15.48;68.60
73600;BME280;61877;48.246;9.220;2023-05-12T12:01:43;93834.94;;;15.33;69.06
73600;BME280;61877;48.246;9.220;2023-05-12T12:04:14;93826.84;;;15.33;65.85
73600;BME280;61877;48.246;9.220;2023-05-12T12:06:48;93834.66;;;15.05;66.38
73600;BME280;61877;48.246;9.220;2023-05-12T12:09:29;93839.41;;;15.15;67.25
73600;BME280;61877;48.246;9.220;2023-05-12T12:11:54;93833.06;;;15.37;69.14
73600;BME280;61877;48.246;9.220;2023-05-12T12:14:31;93839.31;;;15.95;66.27
73600;BME280;61877;48.246;9.220;2023-05-12T12:16:56;93836.97;;;15.90;64.04
73600;BME280;61877;48.246;9.220;2023-05-12T12:19:22;93839.66;;;15.39;66.72
73600;BME280;61877;48.246;9.220;2023-05-12T12:21:47;93845.88;;;15.91;66.39
73600;BME280;61877;48.246;9.220;2023-05-12T12:24:24;93844.31;;;15.90;65.89
73600;BME280;61877;48.246;9.220;2023-05-12T12:26:54;93843.47;;;15.82;67.61
73600;BME280;61877;48.246;9.220;2023-05-12T12:29:21;93846.53;;;15.77;65.84
73600;BME280;61877;48.246;9.220;2023-05-12T12:31:47;93849.69;;;15.83;66.74
73600;BME280;61877;48.246;9.220;2023-05-12T12:34:14;93847.28;;;15.74;63.74
73600;BME280;61877;48.246;9.220;2023-05-12T12:36:42;93845.06;;;15.90;66.58
73600;BME280;61877;48.246;9.220;2023-05-12T12:39:07;93845.94;;;16.01;64.91
73600;BME280;61877;48.246;9.220;2023-05-12T12:41:42;93847.38;;;15.85;66.04
73600;BME280;61877;48.246;9.220;2023-05-12T12:44:10;93847.97;;;15.64;63.63
73600;BME280;61877;48.246;9.220;2023-05-12T12:47:07;93849.59;;;15.72;66.17
73600;BME280;61877;48.246;9.220;2023-05-12T12:49:37;93848.81;;;15.31;65.29
73600;BME280;61877;48.246;9.220;2023-05-12T12:52:03;93840.09;;;15.45;64.46
73600;BME280;61877;48.246;9.220;2023-05-12T12:54:28;93845.84;;;15.40;65.31
73600;BME280;61877;48.246;9.220;2023-05-12T12:57:10;93857.91;;;16.00;63.81
73600;BME280;61877;48.246;9.220;2023-05-12T12:59:36;93855.78;;;16.30;61.28
73600;BME280;61877;48.246;9.220;2023-05-12T13:02:06;93844.09;;;16.84;60.99
73600;BME280;61877;48.246;9.220;2023-05-12T13:04:31;93847.28;;;17.18;59.61
73600;BME280;61877;48.246;9.220;2023-05-12T13:07:00;93840.78;;;17.61;55.56
73600;BME280;61877;48.246;9.220;2023-05-12T13:09:28;93834.97;;;17.83;55.48
73600;BME280;61877;48.246;9.220;2023-05-12T13:11:56;93832.19;;;18.50;50.16
73600;BME280;61877;48.246;9.220;2023-05-12T13:14:22;93831.50;;;17.69;51.86
73600;BME280;61877;48.246;9.220;2023-05-12T13:16:50;93833.09;;;19.12;50.00
73600;BME280;61877;48.246;9.220;2023-05-12T13:19:17;93831.28;;;19.54;48.99
73600;BME280;61877;48.246;9.220;2023-05-12T13:21:42;93825.56;;;19.41;48.73
73600;BME280;61877;48.246;9.220;2023-05-12T13:24:07;93823.97;;;19.44;50.10
73600;BME280;61877;48.246;9.220;2023-05-12T13:26:33;93823.88;;;18.85;48.77
73600;BME280;61877;48.246;9.220;2023-05-12T13:28:58;93834.53;;;18.45;49.23
73600;BME280;61877;48.246;9.220;2023-05-12T13:31:24;93833.41;;;17.86;53.82
73600;BME280;61877;48.246;9.220;2023-05-12T13:33:49;93845.97;;;16.76;56.21
73600;BME280;61877;48.246;9.220;2023-05-12T13:36:21;93835.88;;;15.98;59.14
73600;BME280;61877;48.246;9.220;2023-05-12T13:38:49;93847.19;;;15.20;61.69
73600;BME280;61877;48.246;9.220;2023-05-12T13:41:14;93842.44;;;14.73;63.07
73600;BME280;61877;48.246;9.220;2023-05-12T13:43:40;93844.66;;;14.68;66.04
73600;BME280;61877;48.246;9.220;2023-05-12T13:46:05;93836.00;;;14.52;64.08
73600;BME280;61877;48.246;9.220;2023-05-12T13:48:30;93836.75;;;14.49;67.25
73600;BME280;61877;48.246;9.220;2023-05-12T13:50:56;93835.06;;;14.37;66.24
73600;BME280;61877;48.246;9.220;2023-05-12T13:53:22;93844.66;;;14.35;64.87
73600;BME280;61877;48.246;9.220;2023-05-12T13:55:48;93839.75;;;14.44;63.80
73600;BME280;61877;48.246;9.220;2023-05-12T13:58:19;93838.81;;;14.33;64.57
73600;BME280;61877;48.246;9.220;2023-05-12T14:00:47;93833.28;;;14.52;64.52
73600;BME280;61877;48.246;9.220;2023-05-12T14:03:12;93832.19;;;14.89;65.01
73600;BME280;61877;48.246;9.220;2023-05-12T14:05:40;93836.91;;;15.36;64.20
73600;BME280;61877;48.246;9.220;2023-05-12T14:08:06;93836.31;;;15.16;61.39
73600;BME280;61877;48.246;9.220;2023-05-12T14:10:32;93840.72;;;15.72;61.18
73600;BME280;61877;48.246;9.220;2023-05-12T14:12:58;93839.31;;;15.95;58.97
73600;BME280;61877;48.246;9.220;2023-05-12T14:15:23;93831.47;;;16.41;58.50
73600;BME280;61877;48.246;9.220;2023-05-12T14:17:48;93832.53;;;16.98;56.50
73600;BME280;61877;48.246;9.220;2023-05-12T14:20:40;93821.78;;;17.99;53.96
73600;BME280;61877;48.246;9.220;2023-05-12T14:23:33;93822.56;;;17.75;54.08
73600;BME280;61877;48.246;9.220;2023-05-12T14:26:02;93818.63;;;18.43;53.72
73600;BME280;61877;48.246;9.220;2023-05-12T14:28:28;93820.72;;;19.01;51.39
73600;BME280;61877;48.246;9.220;2023-05-12T14:31:00;93821.88;;;19.03;50.90
73600;BME280;61877;48.246;9.220;2023-05-12T14:33:26;93821.53;;;18.94;52.75
73600;BME280;61877;48.246;9.220;2023-05-12T14:35:51;93824.75;;;18.68;53.89
73600;BME280;61877;48.246;9.220;2023-05-12T14:38:16;93824.28;;;18.80;52.56
73600;BME280;61877;48.246;9.220;2023-05-12T14:40:42;93830.34;;;17.84;53.16
73600;BME280;61877;48.246;9.220;2023-05-12T14:43:09;93836.53;;;17.46;55.10
73600;BME280;61877;48.246;9.220;2023-05-12T14:45:34;93834.03;;;16.95;54.53
73600;BME280;61877;48.246;9.220;2023-05-12T14:48:14;93831.56;;;16.48;57.44
73600;BME280;61877;48.246;9.220;2023-05-12T14:50:41;93830.53;;;16.12;59.57
73600;BME280;61877;48.246;9.220;2023-05-12T14:53:08;93822.78;;;16.07;58.79
73600;BME280;61877;48.246;9.220;2023-05-12T14:55:33;93828.88;;;16.58;59.62
73600;BME280;61877;48.246;9.220;2023-05-12T14:58:08;93819.13;;;19.07;53.24
73600;BME280;61877;48.246;9.220;2023-05-12T15:00:35;93820.94;;;19.27;52.98
73600;BME280;61877;48.246;9.220;2023-05-12T15:03:03;93817.13;;;20.24;47.59
73600;BME280;61877;48.246;9.220;2023-05-12T15:05:40;93818.41;;;20.09;48.40
73600;BME280;61877;48.246;9.220;2023-05-12T15:08:07;93817.38;;;19.96;49.56
73600;BME280;61877;48.246;9.220;2023-05-12T15:10:34;93822.84;;;19.41;46.60
73600;BME280;61877;48.246;9.220;2023-05-12T15:13:00;93812.25;;;18.88;50.53
73600;BME280;61877;48.246;9.220;2023-05-12T15:15:42;93827.19;;;18.10;53.75
73600;BME280;61877;48.246;9.220;2023-05-12T15:18:23;93821.00;;;17.88;55.51
73600;BME280;61877;48.246;9.220;2023-05-12T15:20:49;93829.88;;;17.22;57.68
73600;BME280;61877;48.246;9.220;2023-05-12T15:23:17;93827.09;;;17.08;57.52
73600;BME280;61877;48.246;9.220;2023-05-12T15:25:48;93831.81;;;17.43;56.89